Terminal Aerodrome Forecast
Issued by NWS

Home | Current Version | Previous Version | Text Only | Print | Product List | Glossary On
Versions: 1 2 3 4 5 6 7 8 9 10 11 12 13 14 15
897
FTUS42 KMLB 211736
TAFSUA
TAF
KSUA 211736Z 2118/2218 04008KT P6SM VCSH SCT030 BKN060
      TEMPO 2119/2121 5SM SHRA BKN030
     FM220100 07005KT P6SM VCSH SCT025 SCT060
     FM221400 07009KT P6SM VCSH SCT030 BKN060=

USA.gov is the U.S. government's official web portal to all federal, state and local government web resources and services.